createdAt,value
2023-03-06T00:00:33.378Z,99521.86
2023-03-06T00:03:00.758Z,99524.48
2023-03-06T00:05:14.913Z,99517.90
2023-03-06T00:07:27.508Z,99519.83
2023-03-06T00:09:40.058Z,99521.55
2023-03-06T00:11:52.596Z,99520.61
2023-03-06T00:14:05.148Z,99520.61
2023-03-06T00:16:17.735Z,99518.73
2023-03-06T00:18:30.406Z,99520.41
2023-03-06T00:20:44.395Z,99519.54
2023-03-06T00:22:57.638Z,99514.59
2023-03-06T00:25:15.260Z,99516.17
2023-03-06T00:27:27.815Z,99517.54
2023-03-06T00:29:40.310Z,99514.48
2023-03-06T00:31:52.937Z,99516.00
2023-03-06T00:34:05.533Z,99515.03
2023-03-06T00:36:18.112Z,99514.87
2023-03-06T00:38:33.352Z,99508.41
2023-03-06T00:40:45.961Z,99506.20
2023-03-06T00:42:58.580Z,99504.84
2023-03-06T00:45:11.774Z,99501.23
2023-03-06T00:47:24.398Z,99497.47
2023-03-06T00:49:37.019Z,99495.59
2023-03-06T00:51:49.691Z,99490.83
2023-03-06T00:54:02.283Z,99489.42
2023-03-06T00:56:14.967Z,99488.73
2023-03-06T00:58:27.508Z,99481.19
2023-03-06T01:00:40.128Z,99477.91
2023-03-06T01:02:53.650Z,99476.02
2023-03-06T01:05:07.882Z,99471.94
2023-03-06T01:07:20.517Z,99472.77
2023-03-06T01:09:33.056Z,99468.30
2023-03-06T01:11:45.629Z,99467.09
2023-03-06T01:13:58.984Z,99467.46
2023-03-06T01:16:14.368Z,99464.26
2023-03-06T01:18:27.044Z,99464.08
2023-03-06T01:20:39.580Z,99459.65
2023-03-06T01:22:52.201Z,99453.45
2023-03-06T01:25:05.032Z,99455.36
2023-03-06T01:27:17.600Z,99450.27
2023-03-06T01:29:30.233Z,99445.94
2023-03-06T01:31:42.970Z,99449.85
2023-03-06T01:33:55.520Z,99443.04
2023-03-06T01:36:11.305Z,99442.35
2023-03-06T01:38:23.918Z,99438.59
2023-03-06T01:40:37.413Z,99439.95
2023-03-06T01:42:50.904Z,99437.23
2023-03-06T01:45:26.313Z,99433.49
2023-03-06T01:47:38.925Z,99432.89
2023-03-06T01:49:51.732Z,99431.17
2023-03-06T01:52:11.805Z,99430.81
2023-03-06T01:54:28.366Z,99430.48
2023-03-06T01:56:43.731Z,99425.82
2023-03-06T01:58:57.120Z,99422.75
2023-03-06T02:01:14.401Z,99422.58
2023-03-06T02:03:28.672Z,99420.36
2023-03-06T02:05:43.706Z,99414.05
2023-03-06T02:07:57.598Z,99417.79
2023-03-06T02:10:10.680Z,99414.33
2023-03-06T02:12:23.822Z,99414.26
2023-03-06T02:14:37.181Z,99407.41
2023-03-06T02:16:50.567Z,99404.84
2023-03-06T02:19:07.390Z,99402.29
2023-03-06T02:21:27.201Z,99400.96
2023-03-06T02:24:00.035Z,99392.61
2023-03-06T02:26:13.809Z,99390.38
2023-03-06T02:28:27.152Z,99387.45
2023-03-06T02:30:40.705Z,99388.30
2023-03-06T02:32:53.792Z,99385.39
2023-03-06T02:35:07.136Z,99384.36
2023-03-06T02:37:20.540Z,99380.27
2023-03-06T02:39:34.411Z,99375.48
2023-03-06T02:41:47.033Z,99377.36
2023-03-06T02:43:59.637Z,99375.46
2023-03-06T02:46:15.044Z,99367.61
2023-03-06T02:48:27.633Z,99365.87
2023-03-06T02:50:41.807Z,99362.80
2023-03-06T02:52:54.423Z,99364.33
2023-03-06T02:55:07.983Z,99360.40
2023-03-06T02:57:20.536Z,99357.77
2023-03-06T02:59:33.440Z,99357.07
2023-03-06T03:01:47.723Z,99360.80
2023-03-06T03:04:00.360Z,99354.62
2023-03-06T03:06:12.987Z,99352.90
2023-03-06T03:08:26.513Z,99349.45
2023-03-06T03:10:39.114Z,99344.61
2023-03-06T03:12:51.866Z,99342.54
2023-03-06T03:15:05.562Z,99341.16
2023-03-06T03:17:18.142Z,99340.31
2023-03-06T03:19:30.870Z,99333.98
2023-03-06T03:21:43.437Z,99332.75
2023-03-06T03:23:56.037Z,99333.44
2023-03-06T03:26:14.353Z,99328.97
2023-03-06T03:28:27.045Z,99324.70
2023-03-06T03:30:41.051Z,99320.97
2023-03-06T03:32:55.158Z,99319.64
2023-03-06T03:35:11.951Z,99319.17
2023-03-06T03:37:24.538Z,99317.29
2023-03-06T03:39:37.124Z,99313.70
2023-03-06T03:41:50.100Z,99311.10
2023-03-06T03:44:02.649Z,99303.61
2023-03-06T03:46:15.235Z,99301.19
2023-03-06T03:48:27.869Z,99298.78
2023-03-06T03:50:40.420Z,99298.08
2023-03-06T03:52:53.007Z,99296.20
2023-03-06T03:55:06.197Z,99292.94
2023-03-06T03:57:18.836Z,99291.38
2023-03-06T03:59:31.374Z,99287.24
2023-03-06T04:01:45.866Z,99288.25
2023-03-06T04:03:58.489Z,99287.41
2023-03-06T04:06:11.321Z,99286.23
2023-03-06T04:08:25.100Z,99281.09
2023-03-06T04:10:39.359Z,99278.52
2023-03-06T04:12:51.967Z,99275.27
2023-03-06T04:15:06.008Z,99278.58
2023-03-06T04:17:18.552Z,99276.23
2023-03-06T04:19:31.101Z,99275.47
2023-03-06T04:21:43.779Z,99270.49
2023-03-06T04:23:56.369Z,99263.33
2023-03-06T04:26:09.680Z,99260.58
2023-03-06T04:28:22.735Z,99253.27
2023-03-06T04:30:35.861Z,99256.02
2023-03-06T04:32:48.592Z,99258.05
2023-03-06T04:35:01.175Z,99251.19
2023-03-06T04:37:20.368Z,99249.15
2023-03-06T04:39:32.895Z,99251.19
2023-03-06T04:41:45.550Z,99253.52
2023-03-06T04:43:58.100Z,99250.08
2023-03-06T04:46:11.113Z,99248.71
2023-03-06T04:48:23.639Z,99248.31
2023-03-06T04:50:37.970Z,99245.05
2023-03-06T04:52:51.452Z,99243.98
2023-03-06T04:55:08.603Z,99243.29
2023-03-06T04:57:22.048Z,99239.36
2023-03-06T04:59:34.547Z,99238.88
2023-03-06T05:01:47.487Z,99242.81
2023-03-06T05:04:00.141Z,99245.36
2023-03-06T05:06:12.752Z,99242.48
2023-03-06T05:08:25.445Z,99243.34
2023-03-06T05:10:38.121Z,99244.86
2023-03-06T05:12:50.677Z,99240.40
2023-03-06T05:15:07.689Z,99237.45
2023-03-06T05:17:20.256Z,99237.20
2023-03-06T05:19:32.916Z,99235.41
2023-03-06T05:21:45.444Z,99236.38
2023-03-06T05:23:58.038Z,99233.43
2023-03-06T05:26:13.031Z,99234.38
2023-03-06T05:28:25.997Z,99235.06
2023-03-06T05:30:39.505Z,99236.22
2023-03-06T05:32:52.228Z,99231.21
2023-03-06T05:35:05.903Z,99231.34
2023-03-06T05:37:18.474Z,99232.69
2023-03-06T05:39:31.317Z,99234.14
2023-03-06T05:41:44.026Z,99232.70
2023-03-06T05:43:56.951Z,99232.60
2023-03-06T05:46:11.186Z,99227.44
2023-03-06T05:48:23.693Z,99229.44
2023-03-06T05:50:36.339Z,99229.19
2023-03-06T05:52:49.007Z,99228.77
2023-03-06T05:55:01.945Z,99227.84
2023-03-06T05:57:14.561Z,99228.25
2023-03-06T05:59:28.596Z,99228.92
2023-03-06T06:01:41.157Z,99224.95
2023-03-06T06:03:54.280Z,99229.11
2023-03-06T06:06:11.670Z,99227.00
2023-03-06T06:08:24.358Z,99228.98
2023-03-06T06:10:37.049Z,99228.02
2023-03-06T06:12:49.701Z,99226.77
2023-03-06T06:15:02.336Z,99227.90
2023-03-06T06:17:16.495Z,99227.98
2023-03-06T06:19:30.981Z,99227.20
2023-03-06T06:21:43.554Z,99224.20
2023-03-06T06:23:56.105Z,99227.50
2023-03-06T06:26:09.975Z,99231.30
2023-03-06T06:28:22.526Z,99233.25
2023-03-06T06:30:35.046Z,99236.58
2023-03-06T06:32:48.179Z,99235.29
2023-03-06T06:35:00.872Z,99232.63
2023-03-06T06:37:14.276Z,99234.95
2023-03-06T06:39:27.040Z,99236.55
2023-03-06T06:41:55.479Z,99236.33
2023-03-06T06:44:15.480Z,99237.64
2023-03-06T06:47:14.402Z,99240.48
2023-03-06T06:49:02.941Z,99239.88
2023-03-06T06:51:17.373Z,99238.09
2023-03-06T06:53:30.292Z,99237.85
2023-03-06T06:55:42.923Z,99238.82
2023-03-06T06:57:55.535Z,99240.77
2023-03-06T07:00:12.838Z,99235.77
2023-03-06T07:02:25.450Z,99233.91
2023-03-06T07:04:44.297Z,99232.98
2023-03-06T07:07:02.250Z,99236.47
2023-03-06T07:09:14.743Z,99235.48
2023-03-06T07:11:27.326Z,99235.89
2023-03-06T07:13:40.344Z,99235.98
2023-03-06T07:15:52.959Z,99234.89
2023-03-06T07:18:05.853Z,99238.75
2023-03-06T07:20:19.880Z,99238.52
2023-03-06T07:22:44.764Z,99244.55
2023-03-06T07:25:01.226Z,99242.61
2023-03-06T07:27:13.930Z,99243.36
2023-03-06T07:29:26.502Z,99242.26
2023-03-06T07:31:39.320Z,99243.88
2023-03-06T07:33:53.552Z,99239.64
2023-03-06T07:36:11.313Z,99243.20
2023-03-06T07:38:24.708Z,99249.22
2023-03-06T07:40:38.826Z,99250.67
2023-03-06T07:43:09.203Z,99250.56
2023-03-06T07:45:29.604Z,99252.72
2023-03-06T07:47:42.261Z,99249.56
2023-03-06T07:49:59.315Z,99250.45
2023-03-06T07:52:12.733Z,99243.73
2023-03-06T07:54:26.315Z,99244.73
2023-03-06T07:56:38.871Z,99246.42
2023-03-06T07:58:51.429Z,99247.48
2023-03-06T08:01:10.459Z,99247.40
2023-03-06T08:03:22.999Z,99247.70
2023-03-06T08:05:35.510Z,99248.73
2023-03-06T08:07:48.041Z,99248.63
2023-03-06T08:10:01.080Z,99247.66
2023-03-06T08:12:15.750Z,99248.48
2023-03-06T08:14:29.240Z,99251.56
2023-03-06T08:16:42.667Z,99254.42
2023-03-06T08:18:56.665Z,99253.80
2023-03-06T08:21:12.459Z,99252.40
2023-03-06T08:23:25.025Z,99252.95
2023-03-06T08:25:37.675Z,99254.16
2023-03-06T08:27:50.252Z,99249.55
2023-03-06T08:30:03.503Z,99252.27
2023-03-06T08:32:16.066Z,99251.87
2023-03-06T08:34:28.649Z,99252.00
2023-03-06T08:36:41.645Z,99248.88
2023-03-06T08:38:54.666Z,99248.62
2023-03-06T08:41:07.302Z,99249.16
2023-03-06T08:43:19.831Z,99248.13
2023-03-06T08:45:32.447Z,99249.33
2023-03-06T08:47:44.996Z,99250.83
2023-03-06T08:50:00.201Z,99252.52
2023-03-06T08:52:13.411Z,99257.40
2023-03-06T08:54:25.943Z,99257.34
2023-03-06T08:56:39.030Z,99254.61
2023-03-06T08:58:52.858Z,99253.05
2023-03-06T09:01:07.367Z,99261.59
2023-03-06T09:03:20.018Z,99254.19
2023-03-06T09:05:32.709Z,99253.42
2023-03-06T09:07:45.262Z,99255.71
2023-03-06T09:09:58.170Z,99252.97
2023-03-06T09:12:10.818Z,99254.74
2023-03-06T09:14:23.497Z,99249.59
2023-03-06T09:16:36.103Z,99252.08
2023-03-06T09:18:50.881Z,99250.33
2023-03-06T09:21:04.447Z,99251.71
2023-03-06T09:23:16.999Z,99252.46
2023-03-06T09:25:29.502Z,99253.19
2023-03-06T09:27:42.047Z,99252.87
2023-03-06T09:29:55.532Z,99251.58
2023-03-06T09:32:08.155Z,99254.13
2023-03-06T09:34:20.683Z,99253.30
2023-03-06T09:36:42.766Z,99248.27
2023-03-06T09:39:02.032Z,99247.67
2023-03-06T09:41:30.330Z,99246.89
2023-03-06T09:43:49.609Z,99245.01
2023-03-06T09:46:21.112Z,99245.90
2023-03-06T09:48:49.829Z,99243.71
2023-03-06T09:51:11.061Z,99242.19
2023-03-06T09:54:00.670Z,99243.27
2023-03-06T09:56:17.921Z,99241.17
2023-03-06T09:58:36.123Z,99234.29
2023-03-06T10:01:12.378Z,99234.32
2023-03-06T10:03:27.961Z,99234.49
2023-03-06T10:05:45.236Z,99234.73
2023-03-06T10:08:05.180Z,99231.08
2023-03-06T10:10:24.994Z,99231.73
2023-03-06T10:12:44.706Z,99230.39
2023-03-06T10:15:12.252Z,99232.43
2023-03-06T10:17:28.979Z,99228.46
2023-03-06T10:19:42.328Z,99224.09
2023-03-06T10:22:02.147Z,99219.45
2023-03-06T10:24:42.311Z,99220.78
2023-03-06T10:27:10.657Z,99219.05
2023-03-06T10:30:01.740Z,99213.42
2023-03-06T10:32:32.153Z,99212.02
2023-03-06T10:34:50.741Z,99209.39
2023-03-06T10:37:16.808Z,99206.30
2023-03-06T10:39:29.510Z,99205.66
2023-03-06T10:41:42.553Z,99206.88
2023-03-06T10:44:04.615Z,99207.95
2023-03-06T10:46:29.253Z,99206.74
2023-03-06T10:48:42.705Z,99202.67
2023-03-06T10:51:33.169Z,99198.77
2023-03-06T10:53:58.930Z,99195.90
2023-03-06T10:56:11.512Z,99187.57
2023-03-06T10:58:26.075Z,99185.07
2023-03-06T11:00:38.589Z,99181.59
2023-03-06T11:03:21.643Z,99173.64
2023-03-06T11:05:34.215Z,99173.95
2023-03-06T11:07:59.446Z,99174.36
2023-03-06T11:10:19.662Z,99173.07
2023-03-06T11:12:33.530Z,99171.91
2023-03-06T11:14:46.097Z,99171.31
2023-03-06T11:16:58.624Z,99168.63
2023-03-06T11:19:28.822Z,99170.88
2023-03-06T11:21:41.448Z,99164.61
2023-03-06T11:24:00.598Z,99168.14
2023-03-06T11:26:16.193Z,99164.90
2023-03-06T11:28:41.767Z,99164.89
2023-03-06T11:31:20.885Z,99163.85
2023-03-06T11:33:47.491Z,99162.79
2023-03-06T11:36:11.362Z,99163.89
2023-03-06T11:38:40.363Z,99162.33
2023-03-06T11:40:55.954Z,99157.72
2023-03-06T11:43:23.516Z,99157.56
2023-03-06T11:45:44.983Z,99157.17
2023-03-06T11:48:09.598Z,99155.30
2023-03-06T11:50:30.953Z,99150.14
2023-03-06T11:52:56.032Z,99151.54
2023-03-06T11:55:15.465Z,99147.23
2023-03-06T11:57:51.214Z,99145.98
2023-03-06T12:00:14.626Z,99143.10
2023-03-06T12:02:33.196Z,99140.90
2023-03-06T12:05:02.218Z,99137.52
2023-03-06T12:07:23.682Z,99134.13
2023-03-06T12:09:50.723Z,99128.56
2023-03-06T12:12:32.878Z,99123.30
2023-03-06T12:15:04.986Z,99122.72
2023-03-06T12:17:26.511Z,99115.27
2023-03-06T12:19:54.068Z,99117.25
2023-03-06T12:22:31.352Z,99113.86
2023-03-06T12:25:05.651Z,99116.59
2023-03-06T12:27:26.984Z,99115.58
2023-03-06T12:29:59.948Z,99125.35
2023-03-06T12:32:21.782Z,99125.11
2023-03-06T12:34:55.925Z,99123.21
2023-03-06T12:37:21.076Z,99123.72
2023-03-06T12:40:06.596Z,99120.42
2023-03-06T12:42:50.777Z,99120.27
2023-03-06T12:45:03.252Z,99121.23
2023-03-06T12:47:20.739Z,99119.39
2023-03-06T12:49:38.742Z,99122.84
2023-03-06T12:51:53.938Z,99126.11
2023-03-06T12:54:07.320Z,99125.33
2023-03-06T12:56:21.830Z,99123.80
2023-03-06T12:58:44.993Z,99125.20
2023-03-06T13:01:31.642Z,99125.89
2023-03-06T13:04:23.671Z,99128.70
2023-03-06T13:06:59.795Z,99131.33
2023-03-06T13:09:28.029Z,99132.08
2023-03-06T13:11:58.532Z,99127.31
2023-03-06T13:14:28.055Z,99128.35
2023-03-06T13:16:40.848Z,99131.20
2023-03-06T13:19:02.971Z,99129.73
2023-03-06T13:21:43.921Z,99130.40
2023-03-06T13:24:04.562Z,99125.08
2023-03-06T13:26:26.668Z,99130.18
2023-03-06T13:28:48.790Z,99131.95
2023-03-06T13:31:01.371Z,99129.54
2023-03-06T13:33:36.242Z,99131.44
2023-03-06T13:35:53.216Z,99135.02
2023-03-06T13:38:33.236Z,99133.72
2023-03-06T13:40:45.830Z,99133.11
2023-03-06T13:43:12.053Z,99136.34
2023-03-06T13:45:29.433Z,99136.48
2023-03-06T13:48:15.538Z,99134.58
2023-03-06T13:50:44.815Z,99136.56
2023-03-06T13:53:09.247Z,99137.14
2023-03-06T13:55:48.902Z,99141.47
2023-03-06T13:58:16.477Z,99127.21
2023-03-06T14:01:00.536Z,99117.13
2023-03-06T14:03:45.291Z,99106.23
2023-03-06T14:05:58.946Z,99103.59
2023-03-06T14:08:17.457Z,99097.63
2023-03-06T14:10:34.370Z,99091.98
2023-03-06T14:12:49.915Z,99090.29
2023-03-06T14:15:21.946Z,99084.95
2023-03-06T14:17:37.989Z,99081.36
2023-03-06T14:19:51.237Z,99080.98
2023-03-06T14:22:05.764Z,99078.30
2023-03-06T14:24:20.236Z,99075.17
2023-03-06T14:26:40.470Z,99070.37
2023-03-06T14:28:52.950Z,99069.38
2023-03-06T14:31:06.662Z,99067.27
2023-03-06T14:33:48.897Z,99063.92
2023-03-06T14:36:07.936Z,99066.70
2023-03-06T14:38:20.563Z,99064.95
2023-03-06T14:40:44.920Z,99063.59
2023-03-06T14:43:11.597Z,99060.23
2023-03-06T14:45:24.846Z,99058.57
2023-03-06T14:47:37.405Z,99056.65
2023-03-06T14:50:30.032Z,99056.33
2023-03-06T14:52:43.168Z,99056.41
2023-03-06T14:54:56.776Z,99054.44
2023-03-06T14:57:15.419Z,99057.31
2023-03-06T14:59:31.131Z,99057.63
2023-03-06T15:01:50.675Z,99053.66
2023-03-06T15:04:15.459Z,99053.40
2023-03-06T15:06:40.173Z,99051.61
2023-03-06T15:09:07.619Z,99052.08
2023-03-06T15:11:20.416Z,99052.30
2023-03-06T15:13:34.691Z,99051.02
2023-03-06T15:16:19.714Z,99053.36
2023-03-06T15:18:39.105Z,99054.40
2023-03-06T15:20:55.901Z,99056.02
2023-03-06T15:23:22.141Z,99053.23
2023-03-06T15:25:34.754Z,99053.45
2023-03-06T15:27:49.912Z,99051.11
2023-03-06T15:30:23.617Z,99052.46
2023-03-06T15:32:42.374Z,99055.79
2023-03-06T15:35:36.602Z,99056.40
2023-03-06T15:37:51.044Z,99058.82
2023-03-06T15:40:09.340Z,99053.84
2023-03-06T15:42:25.847Z,99051.67
2023-03-06T15:44:38.417Z,99050.61
2023-03-06T15:46:56.262Z,99047.49
2023-03-06T15:49:16.597Z,99045.03
2023-03-06T15:51:30.675Z,99044.72
2023-03-06T15:53:43.340Z,99046.92
2023-03-06T15:55:56.454Z,99047.10
2023-03-06T15:58:15.256Z,99044.45
2023-03-06T16:00:30.751Z,99045.79
2023-03-06T16:02:43.296Z,99050.56
2023-03-06T16:04:56.092Z,99046.79
2023-03-06T16:07:08.785Z,99047.09
2023-03-06T16:09:22.935Z,99046.54
2023-03-06T16:11:43.726Z,99049.54
2023-03-06T16:13:59.500Z,99047.60
2023-03-06T16:16:18.786Z,99044.16
2023-03-06T16:18:31.567Z,99047.19
2023-03-06T16:20:44.653Z,99045.69
2023-03-06T16:22:57.317Z,99047.38
2023-03-06T16:25:10.195Z,99048.28
2023-03-06T16:27:25.638Z,99050.30
2023-03-06T16:29:38.210Z,99050.52
2023-03-06T16:31:51.515Z,99054.52
2023-03-06T16:34:04.241Z,99052.79
2023-03-06T16:36:20.628Z,99058.11
2023-03-06T16:38:33.191Z,99058.02
2023-03-06T16:40:45.765Z,99054.94
2023-03-06T16:42:58.567Z,99056.15
2023-03-06T16:45:11.826Z,99053.76
2023-03-06T16:47:24.341Z,99056.75
2023-03-06T16:49:36.960Z,99057.80
2023-03-06T16:51:50.589Z,99060.72
2023-03-06T16:54:03.181Z,99060.08
2023-03-06T16:56:17.798Z,99060.95
2023-03-06T16:58:30.505Z,99063.70
2023-03-06T17:00:43.674Z,99069.36
2023-03-06T17:02:56.310Z,99065.67
2023-03-06T17:05:11.247Z,99069.21
2023-03-06T17:07:24.199Z,99068.38
2023-03-06T17:09:36.815Z,99070.44
2023-03-06T17:11:49.846Z,99068.25
2023-03-06T17:14:02.589Z,99069.83
2023-03-06T17:16:16.630Z,99070.59
2023-03-06T17:18:29.992Z,99070.54
2023-03-06T17:20:50.131Z,99071.77
2023-03-06T17:23:02.778Z,99074.74
2023-03-06T17:25:15.396Z,99076.64
2023-03-06T17:27:28.480Z,99075.98
2023-03-06T17:29:41.133Z,99076.64
2023-03-06T17:31:53.881Z,99078.48
2023-03-06T17:34:08.511Z,99079.80
2023-03-06T17:36:21.091Z,99082.60
2023-03-06T17:38:33.703Z,99084.25
2023-03-06T17:40:46.370Z,99082.13
2023-03-06T17:42:58.926Z,99085.30
2023-03-06T17:45:12.003Z,99086.80
2023-03-06T17:47:24.524Z,99086.70
2023-03-06T17:49:37.107Z,99087.94
2023-03-06T17:51:49.727Z,99090.39
2023-03-06T17:54:02.320Z,99089.05
2023-03-06T17:56:15.119Z,99090.42
2023-03-06T17:58:27.818Z,99090.55
2023-03-06T18:00:42.001Z,99090.20
2023-03-06T18:02:54.602Z,99090.36
2023-03-06T18:05:07.864Z,99090.40
2023-03-06T18:07:20.669Z,99093.72
2023-03-06T18:09:33.381Z,99092.17
2023-03-06T18:11:46.049Z,99095.77
2023-03-06T18:13:59.269Z,99096.14
2023-03-06T18:16:18.100Z,99099.30
2023-03-06T18:18:31.162Z,99100.56
2023-03-06T18:20:46.500Z,99098.23
2023-03-06T18:23:03.419Z,99099.29
2023-03-06T18:25:16.169Z,99102.50
2023-03-06T18:27:28.795Z,99104.15
2023-03-06T18:29:42.065Z,99105.04
2023-03-06T18:31:56.341Z,99106.09
2023-03-06T18:34:13.967Z,99107.70
2023-03-06T18:36:29.693Z,99109.20
2023-03-06T18:38:43.971Z,99108.60
2023-03-06T18:40:56.556Z,99107.33
2023-03-06T18:43:12.420Z,99107.52
2023-03-06T18:45:25.282Z,99111.15
2023-03-06T18:47:37.844Z,99111.92
2023-03-06T18:49:50.747Z,99111.80
2023-03-06T18:52:05.215Z,99117.14
2023-03-06T18:54:17.971Z,99117.02
2023-03-06T18:56:31.310Z,99120.42
2023-03-06T18:58:44.472Z,99117.65
2023-03-06T19:00:59.331Z,99118.75
2023-03-06T19:03:12.429Z,99121.39
2023-03-06T19:05:25.259Z,99122.95
2023-03-06T19:07:39.153Z,99120.73
2023-03-06T19:09:51.744Z,99122.17
2023-03-06T19:12:04.932Z,99123.64
2023-03-06T19:14:17.541Z,99122.46
2023-03-06T19:16:31.195Z,99125.08
2023-03-06T19:18:43.884Z,99126.64
2023-03-06T19:21:07.571Z,99126.34
2023-03-06T19:23:21.418Z,99130.02
2023-03-06T19:25:34.200Z,99134.66
2023-03-06T19:27:46.819Z,99135.30
2023-03-06T19:29:59.378Z,99135.60
2023-03-06T19:32:12.251Z,99141.80
2023-03-06T19:34:24.918Z,99141.63
2023-03-06T19:36:38.867Z,99141.95
2023-03-06T19:38:59.219Z,99140.86
2023-03-06T19:41:13.770Z,99141.45
2023-03-06T19:43:27.837Z,99135.95
2023-03-06T19:45:44.577Z,99133.91
2023-03-06T19:48:00.729Z,99134.00
2023-03-06T19:50:13.421Z,99135.89
2023-03-06T19:52:26.560Z,99138.30
2023-03-06T19:54:39.326Z,99142.70
2023-03-06T19:56:51.908Z,99142.61
2023-03-06T19:59:04.504Z,99140.95
2023-03-06T20:01:19.940Z,99143.81
2023-03-06T20:03:32.536Z,99148.55
2023-03-06T20:05:46.741Z,99151.39
2023-03-06T20:07:59.421Z,99152.48
2023-03-06T20:10:13.208Z,99155.61
2023-03-06T20:12:25.779Z,99153.44
2023-03-06T20:14:38.496Z,99154.66
2023-03-06T20:16:51.096Z,99156.02
2023-03-06T20:19:04.481Z,99159.05
2023-03-06T20:21:17.251Z,99162.03
2023-03-06T20:23:30.846Z,99159.23
2023-03-06T20:25:43.473Z,99164.24
2023-03-06T20:27:56.064Z,99166.16
2023-03-06T20:30:09.292Z,99164.43
2023-03-06T20:32:21.892Z,99163.57
2023-03-06T20:34:34.469Z,99163.89
2023-03-06T20:36:47.262Z,99171.42
2023-03-06T20:39:00.298Z,99166.16
2023-03-06T20:41:17.377Z,99160.19
2023-03-06T20:43:29.961Z,99164.66
2023-03-06T20:45:42.497Z,99163.73
2023-03-06T20:47:57.076Z,99164.02
2023-03-06T20:50:10.193Z,99160.48
2023-03-06T20:52:22.759Z,99158.31
2023-03-06T20:54:35.728Z,99158.10
2023-03-06T20:56:49.186Z,99153.14
2023-03-06T20:59:02.722Z,99154.61
2023-03-06T21:01:25.458Z,99150.77
2023-03-06T21:03:38.369Z,99151.79
2023-03-06T21:05:51.087Z,99153.27
2023-03-06T21:08:03.840Z,99149.59
2023-03-06T21:10:16.489Z,99149.92
2023-03-06T21:12:29.167Z,99147.50
2023-03-06T21:14:41.750Z,99150.86
2023-03-06T21:16:54.351Z,99149.96
2023-03-06T21:19:06.970Z,99153.42
2023-03-06T21:21:22.023Z,99151.92
2023-03-06T21:23:34.638Z,99152.33
2023-03-06T21:25:52.342Z,99149.32
2023-03-06T21:28:05.142Z,99147.77
2023-03-06T21:30:17.951Z,99147.17
2023-03-06T21:32:30.895Z,99146.77
2023-03-06T21:34:43.535Z,99146.80
2023-03-06T21:36:56.187Z,99145.81
2023-03-06T21:39:09.171Z,99149.63
2023-03-06T21:41:27.748Z,99150.20
2023-03-06T21:43:40.742Z,99148.92
2023-03-06T21:45:57.389Z,99149.08
2023-03-06T21:48:10.119Z,99147.55
2023-03-06T21:50:23.713Z,99147.86
2023-03-06T21:52:36.790Z,99148.64
2023-03-06T21:54:49.863Z,99148.30
2023-03-06T21:57:02.427Z,99148.78
2023-03-06T21:59:14.991Z,99150.33
2023-03-06T22:01:28.917Z,99150.44
2023-03-06T22:03:41.676Z,99147.72
2023-03-06T22:05:54.578Z,99142.84
2023-03-06T22:08:07.108Z,99138.66
2023-03-06T22:10:20.055Z,99135.02
2023-03-06T22:12:36.638Z,99139.31
2023-03-06T22:14:49.330Z,99141.53
2023-03-06T22:17:02.008Z,99138.41
2023-03-06T22:19:15.609Z,99137.21
2023-03-06T22:21:28.175Z,99133.61
2023-03-06T22:23:41.483Z,99135.03
2023-03-06T22:25:54.051Z,99135.19
2023-03-06T22:28:06.566Z,99134.12
2023-03-06T22:30:19.270Z,99134.27
2023-03-06T22:32:31.895Z,99131.98
2023-03-06T22:34:44.450Z,99133.96
2023-03-06T22:36:57.238Z,99131.46
2023-03-06T22:39:12.152Z,99126.90
2023-03-06T22:41:27.789Z,99129.52
2023-03-06T22:43:40.512Z,99132.04
2023-03-06T22:45:53.352Z,99127.02
2023-03-06T22:48:11.192Z,99126.96
2023-03-06T22:50:24.054Z,99127.20
2023-03-06T22:52:36.614Z,99127.89
2023-03-06T22:54:49.189Z,99127.84
2023-03-06T22:57:01.804Z,99125.36
2023-03-06T22:59:14.420Z,99124.65
2023-03-06T23:01:32.974Z,99127.84
2023-03-06T23:03:48.609Z,99129.41
2023-03-06T23:06:01.297Z,99128.92
2023-03-06T23:08:13.883Z,99129.27
2023-03-06T23:10:26.514Z,99124.36
2023-03-06T23:12:41.557Z,99125.14
2023-03-06T23:14:54.465Z,99123.71
2023-03-06T23:17:07.120Z,99122.61
2023-03-06T23:19:19.659Z,99119.85
2023-03-06T23:21:33.776Z,99120.37
2023-03-06T23:23:54.113Z,99120.89
2023-03-06T23:26:08.088Z,99119.87
2023-03-06T23:28:20.726Z,99126.58
2023-03-06T23:30:33.350Z,99128.09
2023-03-06T23:32:46.197Z,99125.83
2023-03-06T23:34:58.832Z,99127.14
2023-03-06T23:37:11.425Z,99122.80
2023-03-06T23:39:24.035Z,99123.80
2023-03-06T23:41:36.600Z,99125.64
2023-03-06T23:43:50.556Z,99126.54
2023-03-06T23:46:04.131Z,99125.34
2023-03-06T23:48:16.740Z,99126.88
2023-03-06T23:50:29.264Z,99124.70
2023-03-06T23:52:41.837Z,99124.15
2023-03-06T23:54:54.347Z,99121.79
2023-03-06T23:57:07.002Z,99123.02
2023-03-06T23:59:19.542Z,99123.55
